createdAt,value
2019-02-26T00:02:02.539Z,41.05
2019-02-26T00:04:27.318Z,41.11
2019-02-26T00:06:54.131Z,40.94
2019-02-26T00:09:22.377Z,41.10
2019-02-26T00:11:44.730Z,41.24
2019-02-26T00:14:13.330Z,40.91
2019-02-26T00:16:39.766Z,41.02
2019-02-26T00:19:04.883Z,41.31
2019-02-26T00:21:29.326Z,40.94
2019-02-26T00:23:54.744Z,41.05
2019-02-26T00:26:22.390Z,40.93
2019-02-26T00:28:46.742Z,40.73
2019-02-26T00:31:12.781Z,40.90
2019-02-26T00:33:38.786Z,40.94
2019-02-26T00:36:06.648Z,40.93
2019-02-26T00:38:30.775Z,40.95
2019-02-26T00:40:57.761Z,40.70
2019-02-26T00:43:25.398Z,40.59
2019-02-26T00:45:51.062Z,40.59
2019-02-26T00:48:14.766Z,39.99
2019-02-26T00:50:40.764Z,40.60
2019-02-26T00:53:06.758Z,40.45
2019-02-26T00:55:34.729Z,40.85
2019-02-26T00:57:59.171Z,40.53
2019-02-26T01:00:26.830Z,40.56
2019-02-26T01:02:50.752Z,40.27
2019-02-26T01:05:16.756Z,40.30
2019-02-26T01:07:44.773Z,40.76
2019-02-26T01:10:08.744Z,40.34
2019-02-26T01:12:35.708Z,40.63
2019-02-26T01:15:02.586Z,39.92
2019-02-26T01:17:26.762Z,40.29
2019-02-26T01:19:54.289Z,40.36
2019-02-26T01:22:18.759Z,40.59
2019-02-26T01:24:44.759Z,40.30
2019-02-26T01:27:10.755Z,40.50
2019-02-26T01:29:36.751Z,40.51
2019-02-26T01:32:02.845Z,40.37
2019-02-26T01:34:28.841Z,40.51
2019-02-26T01:36:54.853Z,40.74
2019-02-26T01:39:22.854Z,39.51
2019-02-26T01:41:47.925Z,40.46
2019-02-26T01:44:12.849Z,40.49
2019-02-26T01:46:39.358Z,40.45
2019-02-26T01:49:04.850Z,40.59
2019-02-26T01:51:30.847Z,40.56
2019-02-26T01:53:56.844Z,40.58
2019-02-26T01:56:22.863Z,40.42
2019-02-26T01:58:56.418Z,40.15
2019-02-26T02:01:16.628Z,40.40
2019-02-26T02:03:40.860Z,40.34
2019-02-26T02:06:10.634Z,40.00
2019-02-26T02:08:32.859Z,40.49
2019-02-26T02:10:59.850Z,40.77
2019-02-26T02:13:28.348Z,40.12
2019-02-26T02:15:50.862Z,40.84
2019-02-26T02:18:18.224Z,40.89
2019-02-26T02:20:42.855Z,40.67
2019-02-26T02:23:08.855Z,40.87
2019-02-26T02:25:36.168Z,40.45
2019-02-26T02:28:02.691Z,40.96
2019-02-26T02:30:30.919Z,40.47
2019-02-26T02:32:56.846Z,40.82
2019-02-26T02:35:19.432Z,40.82
2019-02-26T02:37:44.866Z,40.95
2019-02-26T02:40:10.863Z,41.11
2019-02-26T02:42:37.727Z,40.93
2019-02-26T02:45:05.079Z,41.09
2019-02-26T02:47:31.637Z,41.26
2019-02-26T02:49:54.861Z,40.51
2019-02-26T02:52:20.855Z,40.80
2019-02-26T02:54:47.522Z,41.04
2019-02-26T02:57:12.887Z,41.31
2019-02-26T02:59:41.692Z,41.33
2019-02-26T03:02:04.891Z,41.08
2019-02-26T03:04:33.956Z,41.09
2019-02-26T03:06:58.654Z,41.29
2019-02-26T03:09:22.880Z,41.22
2019-02-26T03:11:49.572Z,41.32
2019-02-26T03:14:16.534Z,41.10
2019-02-26T03:16:42.460Z,41.34
2019-02-26T03:19:07.728Z,41.06
2019-02-26T03:21:32.867Z,41.04
2019-02-26T03:24:01.045Z,41.18
2019-02-26T03:26:25.919Z,41.27
2019-02-26T03:28:52.816Z,41.28
2019-02-26T03:31:16.866Z,41.12
2019-02-26T03:33:42.864Z,41.35
2019-02-26T03:36:11.190Z,41.02
2019-02-26T03:38:34.891Z,40.71
2019-02-26T03:41:03.286Z,41.13
2019-02-26T03:43:28.679Z,41.40
2019-02-26T03:45:52.885Z,40.97
2019-02-26T03:48:21.940Z,40.84
2019-02-26T03:50:47.940Z,41.27
2019-02-26T03:53:13.945Z,41.31
2019-02-26T03:55:42.023Z,41.29
2019-02-26T03:58:05.962Z,40.89
2019-02-26T04:00:34.492Z,41.41
2019-02-26T04:02:57.969Z,41.24
2019-02-26T04:05:23.974Z,41.43
2019-02-26T04:07:54.994Z,40.98
2019-02-26T04:10:15.984Z,41.37
2019-02-26T04:12:42.931Z,41.34
2019-02-26T04:15:07.972Z,41.25
2019-02-26T04:17:36.970Z,40.97
2019-02-26T04:20:02.670Z,40.95
2019-02-26T04:22:26.497Z,41.43
2019-02-26T04:24:53.046Z,41.26
2019-02-26T04:27:17.967Z,41.15
2019-02-26T04:29:46.049Z,41.22
2019-02-26T04:32:12.099Z,41.53
2019-02-26T04:34:35.960Z,41.03
2019-02-26T04:37:04.660Z,41.47
2019-02-26T04:39:27.976Z,41.27
2019-02-26T04:41:53.972Z,41.33
2019-02-26T04:44:22.623Z,41.15
2019-02-26T04:46:45.972Z,41.17
2019-02-26T04:49:11.994Z,41.33
2019-02-26T04:51:41.507Z,41.25
2019-02-26T04:54:03.998Z,41.52
2019-02-26T04:56:33.466Z,41.33
2019-02-26T04:58:56.002Z,41.59
2019-02-26T05:01:22.003Z,41.28
2019-02-26T05:03:48.019Z,41.49
2019-02-26T05:06:14.013Z,41.45
2019-02-26T05:08:40.717Z,41.41
2019-02-26T05:11:06.003Z,41.41
2019-02-26T05:13:32.819Z,41.51
2019-02-26T05:15:58.019Z,41.10
2019-02-26T05:18:25.962Z,41.35
2019-02-26T05:20:50.046Z,41.41
2019-02-26T05:23:16.040Z,41.41
2019-02-26T05:25:43.009Z,41.36
2019-02-26T05:28:10.059Z,41.34
2019-02-26T05:30:34.079Z,41.15
2019-02-26T05:33:02.348Z,41.12
2019-02-26T05:35:26.072Z,41.66
2019-02-26T05:37:52.083Z,41.79
2019-02-26T05:40:21.436Z,41.67
2019-02-26T05:42:44.099Z,41.43
2019-02-26T05:45:10.097Z,41.53
2019-02-26T05:47:36.149Z,41.49
2019-02-26T05:50:03.873Z,41.71
2019-02-26T05:52:30.642Z,41.68
2019-02-26T05:54:54.225Z,41.85
2019-02-26T05:57:30.863Z,41.73
2019-02-26T05:59:46.275Z,41.72
2019-02-26T06:02:14.176Z,41.72
2019-02-26T06:04:40.798Z,41.84
2019-02-26T06:07:04.705Z,42.00
2019-02-26T06:09:33.008Z,41.76
2019-02-26T06:11:56.297Z,41.01
2019-02-26T06:14:24.667Z,38.30
2019-02-26T06:16:50.612Z,39.09
2019-02-26T06:19:15.805Z,39.48
2019-02-26T06:21:43.961Z,39.29
2019-02-26T06:24:06.389Z,39.28
2019-02-26T06:26:33.366Z,39.39
2019-02-26T06:28:58.388Z,39.71
2019-02-26T06:31:24.951Z,39.54
2019-02-26T06:33:50.683Z,38.91
2019-02-26T06:36:18.395Z,39.80
2019-02-26T06:38:42.429Z,38.85
2019-02-26T06:41:08.485Z,39.60
2019-02-26T06:43:37.466Z,39.34
2019-02-26T06:46:02.560Z,39.68
2019-02-26T06:48:27.564Z,39.28
2019-02-26T06:50:52.510Z,40.06
2019-02-26T06:53:20.945Z,39.49
2019-02-26T06:55:44.525Z,39.91
2019-02-26T06:58:10.535Z,40.08
2019-02-26T07:00:36.602Z,40.28
2019-02-26T07:03:02.808Z,39.92
2019-02-26T07:05:28.642Z,40.58
2019-02-26T07:07:56.953Z,40.24
2019-02-26T07:10:24.327Z,40.18
2019-02-26T07:12:48.752Z,40.46
2019-02-26T07:15:12.669Z,40.71
2019-02-26T07:17:40.683Z,40.70
2019-02-26T07:20:04.694Z,40.71
2019-02-26T07:22:30.790Z,40.62
2019-02-26T07:24:56.798Z,40.62
2019-02-26T07:27:22.794Z,40.85
2019-02-26T07:29:52.198Z,40.75
2019-02-26T07:32:17.190Z,40.15
2019-02-26T07:34:42.799Z,40.29
2019-02-26T07:37:08.819Z,40.39
2019-02-26T07:39:32.888Z,40.40
2019-02-26T07:41:58.889Z,40.77
2019-02-26T07:44:26.470Z,40.58
2019-02-26T07:46:50.889Z,40.47
2019-02-26T07:49:16.894Z,40.67
2019-02-26T07:51:43.097Z,40.51
2019-02-26T07:54:09.007Z,40.48
2019-02-26T07:56:35.006Z,40.30
2019-02-26T07:59:03.801Z,39.85
2019-02-26T08:01:27.032Z,39.66
2019-02-26T08:03:53.330Z,40.03
2019-02-26T08:06:19.028Z,39.92
2019-02-26T08:08:48.464Z,40.02
2019-02-26T08:11:11.032Z,39.70
2019-02-26T08:13:37.028Z,39.57
2019-02-26T08:16:04.998Z,39.58
2019-02-26T08:18:29.035Z,39.18
2019-02-26T08:20:57.470Z,39.71
2019-02-26T08:23:21.677Z,39.77
2019-02-26T08:25:47.213Z,39.67
2019-02-26T08:28:15.327Z,38.88
2019-02-26T08:30:42.300Z,39.68
2019-02-26T08:33:07.400Z,39.37
2019-02-26T08:35:31.401Z,38.90
2019-02-26T08:37:57.430Z,39.16
2019-02-26T08:40:23.464Z,38.01
2019-02-26T08:42:49.466Z,39.29
2019-02-26T08:45:17.578Z,39.32
2019-02-26T08:47:41.626Z,38.37
2019-02-26T08:50:10.108Z,38.06
2019-02-26T08:52:33.646Z,39.09
2019-02-26T08:54:59.638Z,38.93
2019-02-26T08:57:25.647Z,39.18
2019-02-26T08:59:52.298Z,38.89
2019-02-26T09:02:17.741Z,38.92
2019-02-26T09:04:45.160Z,38.90
2019-02-26T09:07:09.750Z,38.80
2019-02-26T09:09:35.753Z,39.19
2019-02-26T09:12:03.217Z,39.01
2019-02-26T09:14:32.170Z,38.99
2019-02-26T09:16:54.945Z,38.85
2019-02-26T09:19:19.928Z,38.96
2019-02-26T09:21:47.777Z,38.75
2019-02-26T09:26:57.550Z,39.12
2019-02-26T09:29:22.294Z,37.91
2019-02-26T09:31:50.985Z,38.54
2019-02-26T09:34:16.988Z,38.46
2019-02-26T09:39:32.028Z,37.54
2019-02-26T09:41:57.582Z,38.44
2019-02-26T09:44:23.861Z,38.42
2019-02-26T09:46:48.214Z,38.69
2019-02-26T09:49:14.212Z,38.44
2019-02-26T09:51:40.207Z,38.27
2019-02-26T09:54:06.209Z,38.86
2019-02-26T09:56:32.338Z,38.76
2019-02-26T09:58:58.349Z,39.10
2019-02-26T10:01:24.344Z,38.97
2019-02-26T10:03:50.343Z,37.97
2019-02-26T10:06:18.608Z,38.77
2019-02-26T10:08:43.902Z,39.05
2019-02-26T10:11:08.458Z,39.09
2019-02-26T10:13:34.517Z,39.24
2019-02-26T10:16:02.001Z,38.87
2019-02-26T10:18:27.914Z,38.80
2019-02-26T10:20:54.606Z,38.64
2019-02-26T10:23:19.395Z,38.93
2019-02-26T10:25:45.494Z,39.24
2019-02-26T10:28:13.676Z,39.05
2019-02-26T10:30:41.047Z,38.38
2019-02-26T10:33:03.504Z,39.14
2019-02-26T10:35:33.237Z,39.21
2019-02-26T10:37:57.077Z,38.96
2019-02-26T10:40:21.931Z,38.97
2019-02-26T10:42:47.999Z,39.51
2019-02-26T10:45:13.968Z,39.01
2019-02-26T10:47:39.981Z,39.83
2019-02-26T10:50:09.891Z,39.64
2019-02-26T10:52:34.080Z,39.50
2019-02-26T10:55:00.148Z,39.25
2019-02-26T10:57:28.523Z,39.64
2019-02-26T10:59:52.228Z,39.54
2019-02-26T11:02:20.644Z,39.05
2019-02-26T11:04:46.728Z,39.01
2019-02-26T11:07:11.618Z,39.76
2019-02-26T11:09:36.422Z,39.35
2019-02-26T11:12:05.238Z,39.33
2019-02-26T11:14:28.500Z,39.02
2019-02-26T11:16:54.512Z,39.31
2019-02-26T11:19:20.518Z,39.30
2019-02-26T11:21:50.683Z,39.32
2019-02-26T11:24:14.760Z,39.22
2019-02-26T11:26:41.417Z,38.78
2019-02-26T11:29:07.342Z,38.82
2019-02-26T11:31:37.002Z,38.08
2019-02-26T11:34:04.021Z,38.35
2019-02-26T11:36:30.404Z,39.00
2019-02-26T11:38:54.520Z,39.07
2019-02-26T11:41:20.551Z,38.75
2019-02-26T11:43:46.550Z,38.21
2019-02-26T11:46:12.570Z,38.70
2019-02-26T11:48:38.671Z,39.10
2019-02-26T11:51:04.605Z,38.41
2019-02-26T11:53:30.640Z,38.75
2019-02-26T11:55:57.379Z,38.54
2019-02-26T11:58:24.273Z,39.19
2019-02-26T12:00:50.675Z,39.49
2019-02-26T12:03:14.635Z,39.60
2019-02-26T12:05:41.777Z,39.62
2019-02-26T12:08:06.638Z,39.55
2019-02-26T12:10:35.026Z,39.11
2019-02-26T12:13:00.026Z,39.64
2019-02-26T12:15:24.674Z,39.54
2019-02-26T12:17:51.808Z,39.68
2019-02-26T12:20:17.700Z,39.50
2019-02-26T12:22:44.708Z,39.15
2019-02-26T12:25:11.050Z,39.60
2019-02-26T12:27:36.213Z,39.57
2019-02-26T12:30:00.730Z,39.82
2019-02-26T12:32:28.963Z,39.78
2019-02-26T12:34:52.740Z,39.79
2019-02-26T12:37:18.745Z,39.72
2019-02-26T12:39:47.509Z,39.25
2019-02-26T12:42:13.453Z,39.73
2019-02-26T12:44:39.424Z,39.91
2019-02-26T12:47:02.756Z,39.74
2019-02-26T12:49:29.395Z,39.35
2019-02-26T12:51:56.770Z,40.05
2019-02-26T12:54:20.924Z,39.93
2019-02-26T12:56:48.817Z,39.35
2019-02-26T12:59:12.920Z,39.51
2019-02-26T13:01:40.818Z,39.28
2019-02-26T13:04:06.098Z,39.34
2019-02-26T13:06:31.051Z,39.74
2019-02-26T13:08:57.062Z,39.88
2019-02-26T13:11:24.970Z,40.07
2019-02-26T13:13:52.337Z,39.81
2019-02-26T13:16:15.048Z,39.76
2019-02-26T13:18:41.062Z,40.04
2019-02-26T13:21:12.690Z,39.67
2019-02-26T13:23:33.089Z,39.83
2019-02-26T13:25:59.110Z,40.08
2019-02-26T13:28:29.588Z,40.16
2019-02-26T13:30:51.124Z,39.96
2019-02-26T13:33:18.198Z,40.02
2019-02-26T13:35:46.738Z,40.00
2019-02-26T13:38:09.199Z,39.93
2019-02-26T13:40:38.442Z,39.80
2019-02-26T13:45:27.225Z,39.40
2019-02-26T13:48:00.730Z,39.79
2019-02-26T13:50:19.272Z,39.68
2019-02-26T13:52:45.276Z,39.27
2019-02-26T13:55:11.277Z,39.78
2019-02-26T13:57:37.270Z,39.96
2019-02-26T14:00:03.272Z,39.88
2019-02-26T14:02:29.385Z,40.01
2019-02-26T14:04:55.379Z,39.38
2019-02-26T14:07:21.439Z,40.04
2019-02-26T14:09:47.443Z,39.87
2019-02-26T14:12:13.439Z,39.87
2019-02-26T14:14:39.441Z,39.98
2019-02-26T14:17:05.458Z,39.60
2019-02-26T14:19:31.464Z,40.08
2019-02-26T14:21:57.487Z,39.41
2019-02-26T14:24:24.463Z,39.58
2019-02-26T14:26:49.483Z,40.24
2019-02-26T14:29:15.498Z,40.12
2019-02-26T14:31:41.524Z,40.14
2019-02-26T14:34:07.520Z,39.97
2019-02-26T14:36:33.552Z,39.90
2019-02-26T14:38:59.559Z,39.16
2019-02-26T14:41:25.559Z,39.63
2019-02-26T14:43:51.612Z,39.60
2019-02-26T14:46:17.623Z,39.42
2019-02-26T14:48:43.629Z,39.82
2019-02-26T14:51:09.633Z,40.00
2019-02-26T14:53:35.628Z,39.90
2019-02-26T14:56:01.635Z,39.90
2019-02-26T14:58:27.648Z,40.10
2019-02-26T15:00:57.695Z,39.70
2019-02-26T15:03:19.642Z,39.94
2019-02-26T15:05:45.733Z,40.20
2019-02-26T15:08:11.737Z,39.95
2019-02-26T15:10:37.722Z,40.27
2019-02-26T15:13:03.728Z,40.28
2019-02-26T15:15:29.751Z,40.17
2019-02-26T15:17:55.751Z,40.49
2019-02-26T15:20:21.768Z,40.47
2019-02-26T15:22:47.765Z,40.13
2019-02-26T15:25:13.783Z,39.88
2019-02-26T15:27:39.830Z,39.82
2019-02-26T15:30:05.820Z,40.13
2019-02-26T15:32:31.917Z,39.94
2019-02-26T15:34:57.916Z,39.97
2019-02-26T15:37:23.917Z,38.86
2019-02-26T15:39:51.302Z,39.31
2019-02-26T15:42:15.918Z,39.33
2019-02-26T15:44:41.951Z,39.05
2019-02-26T15:47:09.239Z,38.95
2019-02-26T15:49:35.824Z,39.32
2019-02-26T15:51:59.972Z,38.93
2019-02-26T15:54:27.322Z,39.07
2019-02-26T15:56:51.982Z,39.31
2019-02-26T15:59:18.383Z,39.27
2019-02-26T16:01:44.388Z,38.81
2019-02-26T16:04:10.390Z,39.16
2019-02-26T16:06:36.460Z,39.22
2019-02-26T16:09:02.460Z,39.14
2019-02-26T16:11:28.464Z,39.12
2019-02-26T16:13:54.476Z,39.42
2019-02-26T16:16:20.476Z,39.73
2019-02-26T16:18:46.480Z,39.70
2019-02-26T16:21:18.499Z,39.86
2019-02-26T16:23:41.553Z,39.84
2019-02-26T16:26:08.114Z,39.92
2019-02-26T16:28:37.767Z,40.11
2019-02-26T16:31:07.741Z,40.04
2019-02-26T16:33:56.587Z,40.22
2019-02-26T16:36:23.170Z,40.46
2019-02-26T16:38:51.402Z,40.51
2019-02-26T16:41:15.836Z,40.80
2019-02-26T16:43:42.512Z,42.80
2019-02-26T16:46:09.158Z,43.21
2019-02-26T16:48:35.912Z,42.73
2019-02-26T16:51:02.124Z,43.22
2019-02-26T16:53:34.286Z,44.32
2019-02-26T16:56:00.635Z,43.73
2019-02-26T16:58:26.793Z,44.19
2019-02-26T17:00:53.165Z,42.94
2019-02-26T17:03:19.158Z,42.37
2019-02-26T17:05:47.270Z,41.77
2019-02-26T17:08:11.186Z,41.62
2019-02-26T17:10:37.203Z,41.33
2019-02-26T17:13:03.219Z,41.17
2019-02-26T17:15:29.226Z,41.04
2019-02-26T17:17:55.226Z,40.83
2019-02-26T17:20:22.484Z,41.03
2019-02-26T17:22:47.296Z,40.92
2019-02-26T17:25:13.319Z,40.92
2019-02-26T17:27:39.652Z,40.76
2019-02-26T17:30:05.316Z,40.73
2019-02-26T17:32:31.318Z,40.62
2019-02-26T17:34:57.332Z,40.36
2019-02-26T17:37:23.341Z,40.40
2019-02-26T17:39:49.351Z,40.58
2019-02-26T17:42:15.614Z,40.47
2019-02-26T17:44:41.359Z,40.25
2019-02-26T17:47:07.367Z,40.45
2019-02-26T17:49:33.667Z,40.47
2019-02-26T17:51:59.570Z,40.60
2019-02-26T17:54:25.574Z,40.64
2019-02-26T17:56:51.599Z,40.74
2019-02-26T17:59:17.595Z,40.96
2019-02-26T18:01:43.596Z,41.05
2019-02-26T18:04:09.598Z,41.29
2019-02-26T18:06:35.604Z,41.31
2019-02-26T18:09:02.551Z,41.64
2019-02-26T18:11:27.608Z,42.00
2019-02-26T18:13:53.635Z,42.30
2019-02-26T18:16:19.661Z,42.40
2019-02-26T18:18:45.660Z,42.58
2019-02-26T18:21:11.664Z,42.55
2019-02-26T18:23:38.294Z,42.53
2019-02-26T18:26:03.852Z,42.49
2019-02-26T18:28:29.850Z,42.50
2019-02-26T18:30:55.856Z,42.33
2019-02-26T18:33:21.856Z,42.31
2019-02-26T18:35:47.872Z,42.18
2019-02-26T18:38:13.867Z,42.11
2019-02-26T18:40:39.903Z,41.90
2019-02-26T18:43:06.530Z,41.80
2019-02-26T18:45:32.532Z,41.92
2019-02-26T18:47:58.543Z,41.85
2019-02-26T18:50:25.819Z,41.62
2019-02-26T18:52:50.543Z,41.76
2019-02-26T18:55:16.540Z,41.71
2019-02-26T18:57:43.686Z,41.69
2019-02-26T19:00:08.617Z,41.59
2019-02-26T19:02:36.024Z,41.74
2019-02-26T19:05:00.626Z,41.89
2019-02-26T19:07:26.631Z,41.85
2019-02-26T19:09:52.633Z,41.82
2019-02-26T19:12:18.687Z,42.34
2019-02-26T19:14:44.647Z,42.49
2019-02-26T19:17:10.638Z,42.50
2019-02-26T19:19:36.663Z,42.58
2019-02-26T19:22:02.667Z,42.69
2019-02-26T19:24:28.667Z,42.68
2019-02-26T19:26:54.673Z,42.71
2019-02-26T19:29:20.668Z,42.64
2019-02-26T19:31:46.666Z,42.65
2019-02-26T19:34:12.663Z,42.67
2019-02-26T19:36:38.704Z,42.72
2019-02-26T19:39:04.737Z,42.77
2019-02-26T19:41:30.782Z,42.97
2019-02-26T19:43:57.525Z,43.02
2019-02-26T19:46:22.744Z,42.90
2019-02-26T19:48:48.742Z,42.87
2019-02-26T19:51:14.867Z,42.78
2019-02-26T19:53:40.875Z,42.69
2019-02-26T19:56:06.877Z,42.68
2019-02-26T19:58:32.878Z,42.65
2019-02-26T20:00:58.936Z,42.71
2019-02-26T20:03:24.941Z,42.68
2019-02-26T20:05:50.936Z,42.47
2019-02-26T20:08:16.931Z,42.60
2019-02-26T20:10:42.964Z,42.47
2019-02-26T20:13:12.534Z,42.43
2019-02-26T20:15:34.997Z,42.41
2019-02-26T20:18:00.962Z,42.43
2019-02-26T20:20:27.012Z,42.25
2019-02-26T20:22:53.011Z,42.30
2019-02-26T20:25:19.009Z,42.17
2019-02-26T20:27:45.017Z,42.42
2019-02-26T20:30:12.395Z,42.18
2019-02-26T20:32:37.043Z,42.33
2019-02-26T20:35:03.044Z,42.12
2019-02-26T20:37:29.078Z,42.24
2019-02-26T20:39:55.071Z,41.97
2019-02-26T20:42:21.068Z,42.05
2019-02-26T20:44:47.067Z,41.99
2019-02-26T20:47:13.076Z,42.09
2019-02-26T20:49:39.067Z,42.16
2019-02-26T20:52:05.101Z,42.14
2019-02-26T20:54:32.772Z,41.84
2019-02-26T20:56:57.105Z,42.10
2019-02-26T20:59:23.129Z,41.85
2019-02-26T21:01:49.602Z,42.07
2019-02-26T21:04:15.138Z,41.99
2019-02-26T21:06:41.131Z,41.89
2019-02-26T21:09:07.726Z,41.72
2019-02-26T21:11:33.129Z,41.76
2019-02-26T21:13:59.182Z,42.00
2019-02-26T21:16:25.176Z,42.09
2019-02-26T21:18:51.168Z,42.04
2019-02-26T21:21:17.172Z,42.07
2019-02-26T21:23:43.163Z,42.11
2019-02-26T21:26:09.191Z,42.10
2019-02-26T21:28:35.192Z,41.84
2019-02-26T21:31:01.191Z,42.04
2019-02-26T21:33:30.612Z,42.00
2019-02-26T21:35:54.358Z,42.07
2019-02-26T21:38:19.196Z,41.71
2019-02-26T21:40:48.735Z,42.13
2019-02-26T21:43:11.224Z,41.94
2019-02-26T21:45:37.220Z,41.64
2019-02-26T21:48:03.360Z,42.01
2019-02-26T21:50:29.215Z,41.56
2019-02-26T21:53:02.225Z,41.65
2019-02-26T21:55:21.225Z,41.93
2019-02-26T21:57:47.226Z,41.96
2019-02-26T22:00:13.232Z,41.69
2019-02-26T22:02:39.239Z,41.93
2019-02-26T22:05:05.835Z,41.87
2019-02-26T22:07:31.237Z,41.88
2019-02-26T22:09:57.236Z,41.76
2019-02-26T22:12:24.205Z,41.73
2019-02-26T22:14:49.234Z,41.64
2019-02-26T22:17:15.232Z,41.93
2019-02-26T22:19:41.235Z,41.86
2019-02-26T22:22:07.226Z,41.67
2019-02-26T22:24:33.232Z,41.85
2019-02-26T22:27:00.099Z,41.88
2019-02-26T22:29:25.270Z,41.96
2019-02-26T22:31:51.253Z,41.95
2019-02-26T22:34:19.018Z,41.92
2019-02-26T22:36:43.247Z,41.71
2019-02-26T22:39:09.245Z,41.72
2019-02-26T22:41:35.658Z,41.70
2019-02-26T22:44:01.255Z,41.81
2019-02-26T22:46:27.256Z,41.80
2019-02-26T22:48:53.270Z,41.72
2019-02-26T22:51:19.273Z,41.64
2019-02-26T22:53:45.271Z,41.78
2019-02-26T22:56:11.267Z,41.74
2019-02-26T22:58:37.265Z,41.64
2019-02-26T23:01:03.275Z,41.85
2019-02-26T23:03:29.265Z,41.48
2019-02-26T23:05:58.806Z,41.80
2019-02-26T23:08:21.286Z,41.45
2019-02-26T23:10:47.286Z,41.86
2019-02-26T23:13:13.284Z,41.52
2019-02-26T23:15:39.282Z,41.75
2019-02-26T23:18:05.284Z,41.87
2019-02-26T23:20:31.279Z,41.64
2019-02-26T23:22:57.285Z,41.76
2019-02-26T23:25:23.274Z,41.75
2019-02-26T23:27:49.348Z,41.75
2019-02-26T23:30:15.273Z,41.71
2019-02-26T23:32:41.278Z,41.44
2019-02-26T23:35:08.757Z,41.53
2019-02-26T23:37:34.627Z,41.71
2019-02-26T23:39:59.335Z,41.61
2019-02-26T23:42:25.336Z,41.62
2019-02-26T23:44:51.597Z,41.54
2019-02-26T23:47:17.336Z,41.68
2019-02-26T23:49:44.848Z,41.81
2019-02-26T23:52:09.334Z,41.52
2019-02-26T23:54:39.734Z,41.80
2019-02-26T23:57:01.344Z,41.59
2019-02-26T23:59:27.340Z,41.53
